createdAt,value
2018-08-24T00:00:28.024Z,0
2018-08-24T00:01:37.580Z,0
2018-08-24T00:02:47.423Z,0
2018-08-24T00:03:57.499Z,0
2018-08-24T00:05:07.670Z,0
2018-08-24T00:06:17.481Z,0
2018-08-24T00:07:27.514Z,0
2018-08-24T00:08:37.419Z,0
2018-08-24T00:09:47.500Z,0
2018-08-24T00:10:57.580Z,0
2018-08-24T00:12:07.440Z,0
2018-08-24T00:13:17.519Z,0
2018-08-24T00:14:27.584Z,0
2018-08-24T00:15:37.652Z,0
2018-08-24T00:16:47.468Z,0
2018-08-24T00:17:57.546Z,0
2018-08-24T00:19:07.761Z,0
2018-08-24T00:20:17.579Z,0
2018-08-24T00:21:27.662Z,0
2018-08-24T00:22:37.735Z,0
2018-08-24T00:23:47.826Z,0
2018-08-24T00:24:57.911Z,0
2018-08-24T00:26:07.976Z,0
2018-08-24T00:27:18.051Z,0
2018-08-24T00:28:28.189Z,0
2018-08-24T00:29:38.273Z,0
2018-08-24T00:30:48.351Z,0
2018-08-24T00:31:58.732Z,0
2018-08-24T00:33:08.841Z,0
2018-08-24T00:34:18.912Z,0
2018-08-24T00:35:29.017Z,0
2018-08-24T00:36:39.085Z,0
2018-08-24T00:37:49.292Z,0
2018-08-24T00:38:59.124Z,0
2018-08-24T00:40:09.233Z,0
2018-08-24T00:41:18.790Z,0
2018-08-24T00:42:28.877Z,0
2018-08-24T00:43:39.013Z,0
2018-08-24T00:44:49.098Z,0
2018-08-24T00:45:59.170Z,0
2018-08-24T00:47:09.263Z,0
2018-08-24T00:48:19.348Z,0
2018-08-24T00:49:29.419Z,0
2018-08-24T00:50:39.233Z,0
2018-08-24T00:51:49.377Z,0
2018-08-24T00:52:59.441Z,0
2018-08-24T00:54:09.521Z,0
2018-08-24T00:55:19.586Z,0
2018-08-24T00:56:29.144Z,0
2018-08-24T00:57:39.005Z,0
2018-08-24T00:58:49.091Z,0
2018-08-24T00:59:59.165Z,0
2018-08-24T01:01:09.244Z,0
2018-08-24T01:02:19.329Z,0
2018-08-24T01:03:29.141Z,0
2018-08-24T01:04:39.213Z,0
2018-08-24T01:05:49.286Z,0
2018-08-24T01:06:59.364Z,0
2018-08-24T01:08:09.434Z,0
2018-08-24T01:09:19.558Z,0
2018-08-24T01:10:29.621Z,0
2018-08-24T01:11:39.193Z,0
2018-08-24T01:12:48.994Z,0
2018-08-24T01:13:59.071Z,0
2018-08-24T01:15:09.212Z,0
2018-08-24T01:16:19.306Z,0
2018-08-24T01:17:29.137Z,0
2018-08-24T01:18:39.221Z,0
2018-08-24T01:19:49.045Z,0
2018-08-24T01:20:59.131Z,0
2018-08-24T01:22:08.934Z,0
2018-08-24T01:23:19.027Z,0
2018-08-24T01:24:29.093Z,0
2018-08-24T01:25:39.172Z,0
2018-08-24T01:26:49.246Z,0
2018-08-24T01:27:59.307Z,0
2018-08-24T01:29:09.374Z,0
2018-08-24T01:30:19.476Z,0
2018-08-24T01:31:29.294Z,0
2018-08-24T01:32:39.119Z,0
2018-08-24T01:33:49.196Z,0
2018-08-24T01:34:59.279Z,0
2018-08-24T01:36:09.352Z,0
2018-08-24T01:37:19.430Z,0
2018-08-24T01:38:29.521Z,0
2018-08-24T01:39:39.593Z,0
2018-08-24T01:40:49.401Z,0
2018-08-24T01:41:59.495Z,0
2018-08-24T01:43:09.567Z,0
2018-08-24T01:44:19.640Z,0
2018-08-24T01:45:29.194Z,0
2018-08-24T01:46:39.009Z,0
2018-08-24T01:47:49.081Z,0
2018-08-24T01:48:59.193Z,0
2018-08-24T01:50:09.266Z,0
2018-08-24T01:51:19.350Z,0
2018-08-24T01:52:29.439Z,0
2018-08-24T01:53:39.510Z,0
2018-08-24T01:54:49.580Z,0
2018-08-24T01:55:59.425Z,0
2018-08-24T01:57:09.490Z,0
2018-08-24T01:58:19.576Z,0
2018-08-24T01:59:29.653Z,0
2018-08-24T02:00:39.745Z,0
2018-08-24T02:01:49.928Z,0
2018-08-24T02:03:00.014Z,0
2018-08-24T02:04:09.826Z,0
2018-08-24T02:05:20.151Z,0
2018-08-24T02:06:29.959Z,0
2018-08-24T02:07:40.041Z,0
2018-08-24T02:08:50.127Z,0
2018-08-24T02:10:00.319Z,0
2018-08-24T02:11:10.393Z,0
2018-08-24T02:12:20.463Z,0
2018-08-24T02:13:30.346Z,0
2018-08-24T02:14:40.695Z,0
2018-08-24T02:15:50.768Z,0
2018-08-24T02:17:00.571Z,0
2018-08-24T02:18:10.923Z,0
2018-08-24T02:19:21.052Z,0
2018-08-24T02:20:31.144Z,0
2018-08-24T02:21:40.955Z,0
2018-08-24T02:22:50.782Z,0
2018-08-24T02:24:00.872Z,0
2018-08-24T02:25:10.963Z,0
2018-08-24T02:26:21.042Z,0
2018-08-24T02:27:30.846Z,0
2018-08-24T02:28:40.926Z,0
2018-08-24T02:29:51.018Z,0
2018-08-24T02:31:00.849Z,0
2018-08-24T02:32:10.956Z,0
2018-08-24T02:33:21.045Z,0
2018-08-24T02:34:31.133Z,0
2018-08-24T02:35:41.205Z,0
2018-08-24T02:36:51.351Z,0
2018-08-24T02:38:01.437Z,0
2018-08-24T02:39:11.517Z,0
2018-08-24T02:40:21.602Z,0
2018-08-24T02:41:31.426Z,0
2018-08-24T02:42:41.544Z,0
2018-08-24T02:43:51.367Z,0
2018-08-24T02:45:01.649Z,0
2018-08-24T02:46:11.848Z,0
2018-08-24T02:47:21.930Z,0
2018-08-24T02:48:31.485Z,0
2018-08-24T02:49:41.563Z,0
2018-08-24T02:50:51.651Z,0
2018-08-24T02:52:01.722Z,0
2018-08-24T02:53:11.797Z,0
2018-08-24T02:54:21.617Z,0
2018-08-24T02:55:31.425Z,0
2018-08-24T02:56:41.505Z,0
2018-08-24T02:57:51.595Z,0
2018-08-24T02:59:01.421Z,0
2018-08-24T03:00:11.342Z,0
2018-08-24T03:01:21.420Z,0
2018-08-24T03:02:31.506Z,0
2018-08-24T03:35:07.650Z,4
2018-08-24T03:36:17.712Z,4
2018-08-24T03:37:27.515Z,4
2018-08-24T03:38:37.589Z,4
2018-08-24T03:39:47.395Z,4
2018-08-24T03:40:57.514Z,8
2018-08-24T03:42:07.580Z,8
2018-08-24T03:43:17.663Z,8
2018-08-24T03:44:27.725Z,12
2018-08-24T03:45:37.531Z,12
2018-08-24T03:46:47.076Z,20
2018-08-24T03:47:57.159Z,20
2018-08-24T03:49:06.957Z,24
2018-08-24T03:50:17.036Z,24
2018-08-24T03:51:26.589Z,32
2018-08-24T03:52:36.657Z,36
2018-08-24T03:53:46.494Z,40
2018-08-24T03:54:56.567Z,44
2018-08-24T03:56:06.639Z,52
2018-08-24T03:57:16.726Z,60
2018-08-24T03:58:26.851Z,68
2018-08-24T03:59:36.953Z,72
2018-08-24T04:00:47.043Z,84
2018-08-24T04:01:57.135Z,92
2018-08-24T04:03:07.210Z,100
2018-08-24T04:04:16.496Z,112
2018-08-24T04:05:26.577Z,124
2018-08-24T04:06:36.685Z,136
2018-08-24T04:07:46.519Z,148
2018-08-24T04:08:56.596Z,164
2018-08-24T04:10:06.674Z,180
2018-08-24T04:11:16.741Z,196
2018-08-24T04:12:26.834Z,212
2018-08-24T04:13:36.924Z,232
2018-08-24T04:14:47.001Z,252
2018-08-24T04:15:57.155Z,268
2018-08-24T04:17:07.220Z,292
2018-08-24T04:18:17.281Z,316
2018-08-24T04:19:27.816Z,340
2018-08-24T04:20:38.068Z,368
2018-08-24T04:21:47.881Z,404
2018-08-24T04:22:57.715Z,436
2018-08-24T04:24:07.837Z,480
2018-08-24T04:25:17.913Z,524
2018-08-24T04:26:27.987Z,572
2018-08-24T04:27:37.808Z,620
2018-08-24T04:28:47.899Z,664
2018-08-24T04:29:58.018Z,704
2018-08-24T04:31:07.837Z,744
2018-08-24T04:32:17.914Z,784
2018-08-24T04:33:27.478Z,828
2018-08-24T04:34:37.288Z,876
2018-08-24T04:35:46.846Z,980
2018-08-24T04:36:56.923Z,1208
2018-08-24T04:38:07.001Z,1452
2018-08-24T04:39:17.081Z,1612
2018-08-24T04:40:27.444Z,1740
2018-08-24T04:41:38.000Z,1852
2018-08-24T04:42:48.096Z,1904
2018-08-24T04:43:57.909Z,2044
2018-08-24T04:45:08.101Z,2172
2018-08-24T04:46:17.924Z,2280
2018-08-24T04:47:28.017Z,2396
2018-08-24T04:48:38.120Z,2496
2018-08-24T04:49:48.198Z,2604
2018-08-24T04:50:58.291Z,2740
2018-08-24T04:52:08.376Z,2884
2018-08-24T04:53:18.470Z,2972
2018-08-24T04:54:28.566Z,3084
2018-08-24T04:55:38.377Z,3168
2018-08-24T04:56:48.446Z,3280
2018-08-24T04:57:58.543Z,3460
2018-08-24T04:59:08.715Z,3608
2018-08-24T05:00:18.807Z,3688
2018-08-24T05:01:28.877Z,3852
2018-08-24T05:02:38.445Z,3916
2018-08-24T05:03:48.525Z,4020
2018-08-24T05:04:58.606Z,4160
2018-08-24T05:06:08.690Z,4276
2018-08-24T05:07:18.784Z,4396
2018-08-24T05:08:28.859Z,4516
2018-08-24T05:09:38.683Z,4592
2018-08-24T05:10:48.767Z,4620
2018-08-24T05:11:58.849Z,4700
2018-08-24T05:13:08.935Z,4788
2018-08-24T05:14:19.003Z,4912
2018-08-24T05:15:28.578Z,5120
2018-08-24T05:16:38.654Z,5168
2018-08-24T05:17:48.740Z,5252
2018-08-24T05:18:58.819Z,5316
2018-08-24T05:20:08.907Z,5296
2018-08-24T05:21:18.557Z,5288
2018-08-24T05:22:28.789Z,5312
2018-08-24T05:23:38.608Z,5360
2018-08-24T05:24:49.120Z,5344
2018-08-24T05:25:59.459Z,5368
2018-08-24T05:27:09.541Z,5396
2018-08-24T05:28:19.974Z,5424
2018-08-24T05:29:30.052Z,5440
2018-08-24T05:30:40.135Z,5504
2018-08-24T05:31:50.222Z,5584
2018-08-24T05:33:00.417Z,5588
2018-08-24T05:34:10.518Z,5600
2018-08-24T05:35:20.591Z,5572
2018-08-24T05:36:30.685Z,5612
2018-08-24T05:37:40.503Z,5640
2018-08-24T05:38:50.583Z,5680
2018-08-24T05:40:00.561Z,5656
2018-08-24T05:41:10.386Z,5684
2018-08-24T05:42:20.470Z,4956
2018-08-24T05:43:30.544Z,3552
2018-08-24T05:44:40.650Z,3068
2018-08-24T05:45:50.541Z,3072
2018-08-24T05:47:00.401Z,3380
2018-08-24T05:48:10.483Z,4780
2018-08-24T05:49:20.569Z,5852
2018-08-24T05:50:30.680Z,4940
2018-08-24T05:51:40.552Z,3444
2018-08-24T05:52:50.627Z,3216
2018-08-24T05:54:00.710Z,3220
2018-08-24T05:55:10.793Z,3240
2018-08-24T05:56:20.862Z,3308
2018-08-24T05:57:30.956Z,3480
2018-08-24T05:58:41.041Z,3368
2018-08-24T05:59:51.174Z,3384
2018-08-24T06:01:00.987Z,3832
2018-08-24T06:02:11.069Z,4824
2018-08-24T06:03:21.151Z,5488
2018-08-24T06:04:31.235Z,5292
2018-08-24T06:05:41.531Z,4432
2018-08-24T06:06:51.813Z,3684
2018-08-24T06:08:01.884Z,3528
2018-08-24T06:09:11.707Z,3512
2018-08-24T06:10:21.522Z,3872
2018-08-24T06:11:31.614Z,4584
2018-08-24T06:12:41.702Z,5008
2018-08-24T06:13:51.771Z,4868
2018-08-24T06:15:01.886Z,4304
2018-08-24T06:16:11.721Z,3792
2018-08-24T06:17:21.858Z,3636
2018-08-24T06:18:31.451Z,3592
2018-08-24T06:19:41.268Z,3600
2018-08-24T06:20:51.116Z,3616
2018-08-24T06:22:01.212Z,3628
2018-08-24T06:23:11.037Z,3648
2018-08-24T06:24:20.926Z,3664
2018-08-24T06:25:31.101Z,3696
2018-08-24T06:26:41.175Z,3716
2018-08-24T06:27:51.249Z,3744
2018-08-24T06:29:01.067Z,3776
2018-08-24T06:30:11.164Z,3792
2018-08-24T06:31:20.973Z,3816
2018-08-24T06:32:31.054Z,3832
2018-08-24T06:33:41.123Z,3824
2018-08-24T06:34:50.931Z,3848
2018-08-24T06:36:01.004Z,3872
2018-08-24T06:37:10.989Z,3880
2018-08-24T06:38:20.925Z,3884
2018-08-24T06:39:30.504Z,3896
2018-08-24T06:40:40.583Z,3908
2018-08-24T06:41:50.323Z,3932
2018-08-24T06:43:00.524Z,3960
2018-08-24T06:44:10.669Z,3988
2018-08-24T06:45:20.737Z,3992
2018-08-24T06:46:30.564Z,4028
2018-08-24T06:47:40.888Z,4040
2018-08-24T06:48:50.704Z,4048
2018-08-24T06:50:00.511Z,4064
2018-08-24T06:51:10.321Z,4076
2018-08-24T06:52:20.162Z,4080
2018-08-24T06:53:30.547Z,4084
2018-08-24T06:54:40.855Z,4112
2018-08-24T06:55:50.417Z,4120
2018-08-24T06:57:00.481Z,4136
2018-08-24T06:58:10.567Z,4144
2018-08-24T06:59:20.513Z,4144
2018-08-24T07:00:30.621Z,4160
2018-08-24T07:01:40.430Z,4172
2018-08-24T07:02:50.266Z,4192
2018-08-24T07:04:00.354Z,4220
2018-08-24T07:05:10.448Z,4248
2018-08-24T07:06:20.532Z,4284
2018-08-24T07:07:30.625Z,4304
2018-08-24T07:08:40.441Z,4328
2018-08-24T07:09:50.539Z,4372
2018-08-24T07:11:00.415Z,4404
2018-08-24T07:12:10.496Z,4436
2018-08-24T07:13:20.588Z,4468
2018-08-24T07:14:30.688Z,4500
2018-08-24T07:15:40.800Z,4536
2018-08-24T07:16:50.873Z,4568
2018-08-24T07:18:00.971Z,4620
2018-08-24T07:19:11.074Z,4652
2018-08-24T07:20:21.140Z,4664
2018-08-24T07:21:31.209Z,4656
2018-08-24T07:22:41.291Z,4688
2018-08-24T07:23:50.848Z,4704
2018-08-24T07:25:00.972Z,4732
2018-08-24T07:26:11.135Z,4756
2018-08-24T07:27:21.218Z,4776
2018-08-24T07:28:31.042Z,4788
2018-08-24T07:29:40.893Z,4800
2018-08-24T07:30:50.705Z,4804
2018-08-24T07:32:00.816Z,4808
2018-08-24T07:33:10.911Z,4832
2018-08-24T07:34:20.990Z,4856
2018-08-24T07:35:31.096Z,4892
2018-08-24T07:36:41.243Z,4920
2018-08-24T07:37:51.327Z,4928
2018-08-24T07:39:01.407Z,4936
2018-08-24T07:40:11.221Z,4960
2018-08-24T07:41:21.464Z,4920
2018-08-24T07:42:31.303Z,4948
2018-08-24T07:43:41.411Z,4964
2018-08-24T07:44:51.480Z,4972
2018-08-24T07:46:01.293Z,4956
2018-08-24T07:47:11.379Z,4928
2018-08-24T07:48:21.517Z,4936
2018-08-24T07:49:31.601Z,4948
2018-08-24T07:50:41.508Z,4940
2018-08-24T07:51:51.692Z,4940
2018-08-24T07:53:01.768Z,4988
2018-08-24T07:54:11.921Z,5004
2018-08-24T07:55:21.738Z,5016
2018-08-24T07:56:31.847Z,5004
2018-08-24T07:57:41.672Z,5008
2018-08-24T07:58:51.754Z,5000
2018-08-24T08:00:01.597Z,5004
2018-08-24T08:01:11.425Z,4996
2018-08-24T08:02:21.262Z,4852
2018-08-24T08:03:31.346Z,4796
2018-08-24T08:04:41.415Z,4844
2018-08-24T08:05:51.510Z,4948
2018-08-24T08:07:01.342Z,5012
2018-08-24T08:08:11.449Z,4932
2018-08-24T08:09:21.537Z,5052
2018-08-24T08:10:31.369Z,5068
2018-08-24T08:11:41.451Z,5116
2018-08-24T08:12:51.683Z,5092
2018-08-24T08:14:01.968Z,5140
2018-08-24T08:15:11.876Z,5200
2018-08-24T08:16:21.990Z,5232
2018-08-24T08:17:31.844Z,5268
2018-08-24T08:18:42.377Z,5464
2018-08-24T08:19:52.558Z,5492
2018-08-24T08:21:02.437Z,5516
2018-08-24T08:22:12.510Z,5572
2018-08-24T08:23:22.642Z,5636
2018-08-24T08:24:32.802Z,5712
2018-08-24T08:25:42.946Z,5844
2018-08-24T08:26:53.082Z,6012
2018-08-24T08:28:03.188Z,6188
2018-08-24T08:29:13.440Z,6420
2018-08-24T08:30:24.977Z,6620
2018-08-24T08:31:35.365Z,6976
2018-08-24T08:32:44.941Z,7120
2018-08-24T08:33:55.037Z,7304
2018-08-24T08:35:05.465Z,7112
2018-08-24T08:36:15.290Z,7708
2018-08-24T08:37:25.398Z,7608
2018-08-24T08:38:35.485Z,7448
2018-08-24T08:39:45.590Z,7192
2018-08-24T08:40:55.211Z,6680
2018-08-24T08:42:05.296Z,6500
2018-08-24T08:43:15.402Z,6948
2018-08-24T08:44:25.529Z,6780
2018-08-24T08:45:35.679Z,6504
2018-08-24T08:46:45.545Z,6420
2018-08-24T08:47:55.120Z,6184
2018-08-24T08:49:05.726Z,4884
2018-08-24T08:50:15.827Z,4800
2018-08-24T08:51:25.915Z,5376
2018-08-24T08:52:36.069Z,4716
2018-08-24T08:53:46.172Z,4800
2018-08-24T08:54:56.262Z,4944
2018-08-24T08:56:06.105Z,5092
2018-08-24T08:57:16.215Z,6776
2018-08-24T08:58:26.357Z,5300
2018-08-24T08:59:36.455Z,5344
2018-08-24T09:00:46.571Z,5652
2018-08-24T09:01:56.688Z,5376
2018-08-24T09:03:06.858Z,5364
2018-08-24T09:04:16.957Z,5344
2018-08-24T09:05:26.540Z,6800
2018-08-24T09:06:37.133Z,6880
2018-08-24T09:07:47.233Z,5976
2018-08-24T09:08:57.339Z,6080
2018-08-24T09:10:07.962Z,6224
2018-08-24T09:11:18.099Z,5192
2018-08-24T09:12:28.208Z,5428
2018-08-24T09:13:38.063Z,5276
2018-08-24T09:14:48.149Z,7052
2018-08-24T09:15:58.313Z,7400
2018-08-24T09:17:08.417Z,7736
2018-08-24T09:18:18.515Z,7692
2018-08-24T09:19:28.675Z,7580
2018-08-24T09:20:38.814Z,7308
2018-08-24T09:21:48.708Z,7300
2018-08-24T09:22:58.817Z,7184
2018-08-24T09:24:08.953Z,6824
2018-08-24T09:25:18.905Z,6852
2018-08-24T09:26:29.150Z,6956
2018-08-24T09:27:39.258Z,7044
2018-08-24T09:28:49.371Z,7264
2018-08-24T09:29:59.468Z,7308
2018-08-24T09:31:09.302Z,7328
2018-08-24T09:32:19.189Z,7032
2018-08-24T09:33:29.396Z,6444
2018-08-24T09:34:39.700Z,6124
2018-08-24T09:35:49.890Z,7060
2018-08-24T09:37:00.002Z,6452
2018-08-24T09:38:09.748Z,6252
2018-08-24T09:39:19.847Z,6064
2018-08-24T09:40:29.980Z,6012
2018-08-24T09:41:39.843Z,6168
2018-08-24T09:42:49.951Z,6100
2018-08-24T09:43:59.792Z,6048
2018-08-24T09:45:09.683Z,6084
2018-08-24T09:46:19.772Z,6148
2018-08-24T09:47:29.595Z,6268
2018-08-24T09:48:39.685Z,6860
2018-08-24T09:49:49.770Z,6740
2018-08-24T09:50:59.608Z,6788
2018-08-24T09:52:09.718Z,7036
2018-08-24T09:53:19.814Z,8064
2018-08-24T09:54:29.937Z,6856
2018-08-24T09:55:40.052Z,6880
2018-08-24T09:56:50.307Z,6928
2018-08-24T09:58:00.770Z,6972
2018-08-24T09:59:10.869Z,7108
2018-08-24T10:00:20.490Z,7020
2018-08-24T10:01:30.597Z,6856
2018-08-24T10:02:40.469Z,6736
2018-08-24T10:03:50.746Z,6736
2018-08-24T10:05:00.907Z,6772
2018-08-24T10:06:11.041Z,7096
2018-08-24T10:07:21.177Z,6696
2018-08-24T10:08:31.531Z,6580
2018-08-24T10:09:41.626Z,6616
2018-08-24T10:10:51.457Z,6420
2018-08-24T10:12:01.379Z,6388
2018-08-24T10:13:11.677Z,6388
2018-08-24T10:14:21.556Z,6784
2018-08-24T10:15:31.637Z,7868
2018-08-24T10:16:41.268Z,7556
2018-08-24T10:17:51.384Z,7124
2018-08-24T10:19:01.717Z,6308
2018-08-24T10:20:11.557Z,7192
2018-08-24T10:21:21.668Z,7580
2018-08-24T10:22:31.769Z,5564
2018-08-24T10:23:42.072Z,5448
2018-08-24T10:24:52.179Z,5416
2018-08-24T10:26:02.299Z,5400
2018-08-24T10:27:12.397Z,5332
2018-08-24T10:28:22.718Z,5288
2018-08-24T10:29:33.071Z,5672
2018-08-24T10:30:43.266Z,5800
2018-08-24T10:31:53.105Z,5836
2018-08-24T10:33:03.264Z,6728
2018-08-24T10:34:13.440Z,5264
2018-08-24T10:35:23.536Z,5164
2018-08-24T10:36:33.701Z,4620
2018-08-24T10:37:43.816Z,4428
2018-08-24T10:38:54.015Z,4248
2018-08-24T10:40:03.595Z,4068
2018-08-24T10:41:13.786Z,3876
2018-08-24T10:42:23.962Z,3660
2018-08-24T10:43:34.093Z,3424
2018-08-24T10:44:44.206Z,3228
2018-08-24T10:45:54.345Z,3076
2018-08-24T10:47:04.436Z,2976
2018-08-24T10:48:14.598Z,2948
2018-08-24T10:49:24.653Z,2968
2018-08-24T10:50:35.016Z,2992
2018-08-24T10:51:44.993Z,3040
2018-08-24T10:52:55.102Z,3088
2018-08-24T10:54:05.236Z,3184
2018-08-24T10:55:15.416Z,3356
2018-08-24T10:56:25.780Z,3544
2018-08-24T10:57:35.956Z,3748
2018-08-24T10:58:46.052Z,3988
2018-08-24T10:59:56.172Z,4252
2018-08-24T11:01:06.269Z,4516
2018-08-24T11:02:16.019Z,4768
2018-08-24T11:03:26.172Z,5008
2018-08-24T11:04:36.289Z,5208
2018-08-24T11:05:46.295Z,5380
2018-08-24T11:06:56.408Z,5516
2018-08-24T11:08:06.536Z,5564
2018-08-24T11:09:16.626Z,5560
2018-08-24T11:10:26.747Z,5524
2018-08-24T11:11:36.890Z,5520
2018-08-24T11:12:47.000Z,6272
2018-08-24T11:13:56.923Z,5360
2018-08-24T11:15:06.772Z,5092
2018-08-24T11:16:16.875Z,4728
2018-08-24T11:17:26.975Z,4484
2018-08-24T11:18:36.814Z,4316
2018-08-24T11:19:46.706Z,4192
2018-08-24T11:20:56.817Z,4048
2018-08-24T11:22:06.987Z,3876
2018-08-24T11:23:17.119Z,3700
2018-08-24T11:24:27.245Z,3572
2018-08-24T11:25:37.352Z,3464
2018-08-24T11:26:47.319Z,3368
2018-08-24T11:27:57.578Z,3244
2018-08-24T11:29:07.846Z,3100
2018-08-24T11:30:17.994Z,2980
2018-08-24T11:31:28.106Z,2876
2018-08-24T11:32:38.214Z,2832
2018-08-24T11:33:48.049Z,2872
2018-08-24T11:34:58.245Z,2956
2018-08-24T11:36:09.123Z,3068
2018-08-24T11:37:19.617Z,3228
2018-08-24T11:38:29.738Z,3444
2018-08-24T11:39:39.840Z,3560
2018-08-24T11:40:49.959Z,3680
2018-08-24T11:42:00.352Z,3784
2018-08-24T11:43:10.511Z,3888
2018-08-24T11:44:20.716Z,4040
2018-08-24T11:45:30.808Z,4112
2018-08-24T11:46:40.642Z,4220
2018-08-24T11:47:50.974Z,4328
2018-08-24T11:49:00.977Z,4452
2018-08-24T11:50:10.832Z,4552
2018-08-24T11:51:20.932Z,4748
2018-08-24T11:52:30.780Z,5008
2018-08-24T11:53:40.928Z,5228
2018-08-24T11:54:51.018Z,5436
2018-08-24T11:56:01.154Z,5052
2018-08-24T11:57:11.044Z,5024
2018-08-24T11:58:21.115Z,5096
2018-08-24T11:59:31.195Z,5284
2018-08-24T12:00:41.572Z,6152
2018-08-24T12:01:51.680Z,7504
2018-08-24T12:03:01.849Z,5736
2018-08-24T12:04:11.679Z,5904
2018-08-24T12:05:21.873Z,6924
2018-08-24T12:06:31.980Z,5452
2018-08-24T12:07:42.124Z,5492
2018-08-24T12:08:51.962Z,5216
2018-08-24T12:10:01.803Z,5140
2018-08-24T12:11:12.005Z,5412
2018-08-24T12:12:22.665Z,5068
2018-08-24T12:13:32.834Z,4804
2018-08-24T12:14:42.972Z,4688
2018-08-24T12:15:53.073Z,4596
2018-08-24T12:17:03.216Z,4516
2018-08-24T12:18:12.978Z,4456
2018-08-24T12:19:23.123Z,4400
2018-08-24T12:20:33.263Z,4380
2018-08-24T12:21:43.828Z,4464
2018-08-24T12:22:53.803Z,4376
2018-08-24T12:24:03.945Z,4364
2018-08-24T12:25:14.019Z,4456
2018-08-24T12:26:24.113Z,4392
2018-08-24T12:27:33.967Z,4452
2018-08-24T12:28:44.077Z,4676
2018-08-24T12:29:53.925Z,4716
2018-08-24T12:31:04.283Z,4856
2018-08-24T12:32:14.722Z,5208
2018-08-24T12:33:24.872Z,4768
2018-08-24T12:34:35.011Z,4548
2018-08-24T12:35:45.383Z,4416
2018-08-24T12:36:55.547Z,4320
2018-08-24T12:38:05.855Z,4204
2018-08-24T12:39:15.982Z,4064
2018-08-24T12:40:25.842Z,3864
2018-08-24T12:41:35.997Z,3652
2018-08-24T12:42:46.173Z,3476
2018-08-24T12:43:56.272Z,3336
2018-08-24T12:45:05.888Z,3240
2018-08-24T12:46:16.037Z,3180
2018-08-24T12:47:26.146Z,3184
2018-08-24T12:48:36.279Z,3196
2018-08-24T12:49:46.238Z,3184
2018-08-24T12:50:56.061Z,3144
2018-08-24T12:52:06.392Z,3084
2018-08-24T12:53:17.208Z,3020
2018-08-24T12:54:27.035Z,2968
2018-08-24T12:55:37.131Z,2928
2018-08-24T12:56:47.050Z,2912
2018-08-24T12:57:56.698Z,2904
2018-08-24T12:59:06.795Z,2912
2018-08-24T13:00:16.933Z,2924
2018-08-24T13:01:26.762Z,2948
2018-08-24T13:02:36.899Z,3004
2018-08-24T13:03:47.066Z,3056
2018-08-24T13:04:57.169Z,3104
2018-08-24T13:06:06.747Z,3156
2018-08-24T13:07:16.829Z,3228
2018-08-24T13:08:26.956Z,3316
2018-08-24T13:09:37.140Z,3404
2018-08-24T13:10:47.944Z,3468
2018-08-24T13:11:58.029Z,3500
2018-08-24T13:13:07.861Z,3516
2018-08-24T13:14:17.960Z,3520
2018-08-24T13:15:28.623Z,3516
2018-08-24T13:16:38.732Z,3512
2018-08-24T13:17:48.975Z,3520
2018-08-24T13:18:58.811Z,3552
2018-08-24T13:20:08.980Z,3600
2018-08-24T13:21:19.158Z,3640
2018-08-24T13:22:28.775Z,3648
2018-08-24T13:23:38.639Z,3620
2018-08-24T13:24:48.767Z,3584
2018-08-24T13:25:58.877Z,3572
2018-08-24T13:27:09.060Z,3580
2018-08-24T13:28:19.291Z,3564
2018-08-24T13:29:29.396Z,3544
2018-08-24T13:30:39.506Z,3532
2018-08-24T13:31:49.340Z,3528
2018-08-24T13:32:59.486Z,3516
2018-08-24T13:34:09.320Z,3520
2018-08-24T13:35:19.486Z,3588
2018-08-24T13:36:29.309Z,3704
2018-08-24T13:37:39.392Z,3860
2018-08-24T13:38:49.549Z,4048
2018-08-24T13:39:59.808Z,4176
2018-08-24T13:41:09.908Z,4268
2018-08-24T13:42:19.490Z,4320
2018-08-24T13:43:29.322Z,4360
2018-08-24T13:44:39.411Z,4376
2018-08-24T13:45:49.572Z,4400
2018-08-24T13:46:59.659Z,4456
2018-08-24T13:48:09.780Z,4480
2018-08-24T13:49:19.902Z,4408
2018-08-24T13:50:30.335Z,4424
2018-08-24T13:51:40.178Z,4464
2018-08-24T13:52:50.298Z,4540
2018-08-24T13:54:00.958Z,4676
2018-08-24T13:55:11.085Z,4816
2018-08-24T13:56:21.212Z,5016
2018-08-24T13:57:31.328Z,5100
2018-08-24T13:58:41.425Z,5208
2018-08-24T13:59:51.874Z,5296
2018-08-24T14:01:02.076Z,5400
2018-08-24T14:02:12.240Z,5492
2018-08-24T14:03:22.351Z,5528
2018-08-24T14:04:32.207Z,5568
2018-08-24T14:05:42.293Z,5620
2018-08-24T14:06:52.131Z,5696
2018-08-24T14:08:02.230Z,5756
2018-08-24T14:09:12.330Z,5760
2018-08-24T14:10:22.432Z,5788
2018-08-24T14:11:32.540Z,5804
2018-08-24T14:12:42.361Z,5780
2018-08-24T14:13:52.248Z,5812
2018-08-24T14:15:02.354Z,5824
2018-08-24T14:16:12.472Z,5800
2018-08-24T14:17:22.633Z,5812
2018-08-24T14:18:32.743Z,5788
2018-08-24T14:19:42.852Z,5824
2018-08-24T14:20:52.701Z,5824
2018-08-24T14:22:02.170Z,5852
2018-08-24T14:23:12.357Z,5748
2018-08-24T14:24:22.207Z,5888
2018-08-24T14:25:32.211Z,5964
2018-08-24T14:26:43.077Z,5992
2018-08-24T14:27:53.355Z,6008
2018-08-24T14:29:02.913Z,6016
2018-08-24T14:30:12.747Z,6020
2018-08-24T14:31:22.903Z,5580
2018-08-24T14:32:33.053Z,5864
2018-08-24T14:33:43.238Z,5940
2018-08-24T14:34:53.325Z,5976
2018-08-24T14:36:03.441Z,5952
2018-08-24T14:37:13.421Z,5952
2018-08-24T14:38:23.979Z,5820
2018-08-24T14:39:34.212Z,5508
2018-08-24T14:40:44.345Z,5260
2018-08-24T14:41:54.454Z,5336
2018-08-24T14:43:04.896Z,5156
2018-08-24T14:44:14.998Z,4932
2018-08-24T14:45:25.102Z,4780
2018-08-24T14:46:35.204Z,4648
2018-08-24T14:47:45.289Z,4508
2018-08-24T14:48:55.118Z,4416
2018-08-24T14:50:05.462Z,4380
2018-08-24T14:51:15.569Z,4256
2018-08-24T14:52:25.680Z,4120
2018-08-24T14:53:35.514Z,4060
2018-08-24T14:54:45.679Z,4004
2018-08-24T14:55:55.776Z,3928
2018-08-24T14:57:05.898Z,3836
2018-08-24T14:58:15.478Z,3756
2018-08-24T14:59:25.335Z,3716
2018-08-24T15:00:35.171Z,3700
2018-08-24T15:01:45.285Z,3700
2018-08-24T15:02:55.389Z,3696
2018-08-24T15:04:05.503Z,3676
2018-08-24T15:05:15.671Z,3668
2018-08-24T15:06:25.770Z,3684
2018-08-24T15:07:35.863Z,3704
2018-08-24T15:08:45.961Z,3732
2018-08-24T15:09:56.262Z,3780
2018-08-24T15:11:06.488Z,3820
2018-08-24T15:12:16.332Z,3872
2018-08-24T15:13:26.436Z,3924
2018-08-24T15:14:36.567Z,3960
2018-08-24T15:15:46.668Z,3976
2018-08-24T15:16:57.033Z,3972
2018-08-24T15:18:07.271Z,3984
2018-08-24T15:19:17.414Z,4008
2018-08-24T15:20:27.522Z,4032
2018-08-24T15:21:37.433Z,4000
2018-08-24T15:22:47.529Z,3976
2018-08-24T15:23:57.631Z,4000
2018-08-24T15:25:07.721Z,4032
2018-08-24T15:26:17.895Z,4100
2018-08-24T15:27:27.778Z,4168
2018-08-24T15:28:37.879Z,4284
2018-08-24T15:29:48.288Z,4356
2018-08-24T15:30:58.518Z,4340
2018-08-24T15:32:09.105Z,4300
2018-08-24T15:33:19.259Z,4268
2018-08-24T15:34:29.373Z,4252
2018-08-24T15:35:39.469Z,4256
2018-08-24T15:36:49.550Z,4376
2018-08-24T15:37:59.655Z,4736
2018-08-24T15:39:09.799Z,4764
2018-08-24T15:40:19.931Z,4556
2018-08-24T15:41:30.036Z,4400
2018-08-24T15:42:40.124Z,4372
2018-08-24T15:43:50.221Z,4184
2018-08-24T15:45:00.432Z,3992
2018-08-24T15:46:10.282Z,3900
2018-08-24T15:47:20.164Z,3744
2018-08-24T15:48:30.244Z,3488
2018-08-24T15:49:40.343Z,2936
2018-08-24T15:50:49.965Z,2736
2018-08-24T15:52:00.123Z,2544
2018-08-24T15:53:10.224Z,2344
2018-08-24T15:54:20.051Z,2132
2018-08-24T15:55:30.183Z,1952
2018-08-24T15:56:40.090Z,1776
2018-08-24T15:57:50.008Z,1612
2018-08-24T15:59:00.109Z,1472
2018-08-24T16:00:10.603Z,1360
2018-08-24T16:01:20.704Z,1260
2018-08-24T16:02:30.813Z,1156
2018-08-24T16:03:40.653Z,1064
2018-08-24T16:04:50.761Z,992
2018-08-24T16:06:00.906Z,932
2018-08-24T16:07:11.044Z,884
2018-08-24T16:08:21.146Z,844
2018-08-24T16:09:31.245Z,812
2018-08-24T16:10:41.328Z,772
2018-08-24T16:11:51.707Z,728
2018-08-24T16:13:01.841Z,680
2018-08-24T16:14:11.972Z,632
2018-08-24T16:15:22.081Z,576
2018-08-24T16:16:32.427Z,516
2018-08-24T16:17:42.736Z,452
2018-08-24T16:18:52.559Z,400
2018-08-24T16:20:02.828Z,360
2018-08-24T16:21:12.997Z,332
2018-08-24T16:22:23.124Z,316
2018-08-24T16:23:32.954Z,312
2018-08-24T16:24:42.845Z,316
2018-08-24T16:25:52.964Z,328